createdAt,value
2018-12-05T00:00:58.000Z,101346
2018-12-05T00:01:58.000Z,101351
2018-12-05T00:02:58.000Z,101351
2018-12-05T00:04:58.000Z,101351
2018-12-05T00:06:43.000Z,101351
2018-12-05T00:07:58.000Z,101350
2018-12-05T00:09:58.000Z,101356
2018-12-05T00:11:58.000Z,101349
2018-12-05T00:13:58.000Z,101349
2018-12-05T00:14:58.000Z,101346
2018-12-05T00:15:58.000Z,101350
2018-12-05T00:17:58.000Z,101351
2018-12-05T00:18:58.000Z,101349
2018-12-05T00:20:58.000Z,101345
2018-12-05T00:21:58.000Z,101342
2018-12-05T00:23:43.000Z,101339
2018-12-05T00:24:58.000Z,101333
2018-12-05T00:26:58.000Z,101334
2018-12-05T00:28:28.000Z,101336
2018-12-05T00:29:58.000Z,101336
2018-12-05T00:31:58.000Z,101338
2018-12-05T00:33:58.000Z,101339
2018-12-05T00:35:58.000Z,101333
2018-12-05T00:37:58.000Z,101324
2018-12-05T00:39:58.000Z,101323
2018-12-05T00:41:43.000Z,101327
2018-12-05T00:42:58.000Z,101330
2018-12-05T00:44:58.000Z,101331
2018-12-05T00:46:58.000Z,101331
2018-12-05T00:48:58.000Z,101329
2018-12-05T00:50:58.000Z,101335
2018-12-05T00:51:58.000Z,101334
2018-12-05T00:53:58.000Z,101331
2018-12-05T00:55:58.000Z,101319
2018-12-05T00:56:58.000Z,101325
2018-12-05T00:57:58.000Z,101322
2018-12-05T00:59:58.000Z,101324
2018-12-05T01:00:58.000Z,101323
2018-12-05T01:02:58.000Z,101320
2018-12-05T01:04:58.000Z,101308
2018-12-05T01:06:43.000Z,101292
2018-12-05T01:07:58.000Z,101290
2018-12-05T01:09:28.000Z,101286
2018-12-05T01:10:58.000Z,101274
2018-12-05T01:12:58.000Z,101279
2018-12-05T01:14:58.000Z,101279
2018-12-05T01:16:58.000Z,101284
2018-12-05T01:17:58.000Z,101289
2018-12-05T01:19:43.000Z,101288
2018-12-05T01:20:58.000Z,101288
2018-12-05T01:21:58.000Z,101288
2018-12-05T01:23:58.000Z,101290
2018-12-05T01:24:58.000Z,101296
2018-12-05T01:25:58.000Z,101297
2018-12-05T01:27:58.000Z,101305
2018-12-05T01:28:58.000Z,101304
2018-12-05T01:30:58.000Z,101309
2018-12-05T01:31:58.000Z,101308
2018-12-05T01:33:58.000Z,101311
2018-12-05T01:35:43.000Z,101322
2018-12-05T01:36:58.000Z,101327
2018-12-05T01:37:58.000Z,101326
2018-12-05T01:39:43.000Z,101322
2018-12-05T01:40:58.000Z,101321
2018-12-05T01:41:58.000Z,101318
2018-12-05T01:43:58.000Z,101320
2018-12-05T01:45:58.000Z,101323
2018-12-05T01:46:58.000Z,101320
2018-12-05T01:48:58.000Z,101320
2018-12-05T01:50:43.000Z,101322
2018-12-05T01:51:58.000Z,101324
2018-12-05T01:53:58.000Z,101323
2018-12-05T01:55:43.000Z,101315
2018-12-05T01:56:58.000Z,101318
2018-12-05T01:57:58.000Z,101319
2018-12-05T01:59:58.000Z,101316
2018-12-05T02:00:58.000Z,101319
2018-12-05T02:02:58.000Z,101319
2018-12-05T02:03:58.000Z,101318
2018-12-05T02:05:43.000Z,101319
2018-12-05T02:06:58.000Z,101322
2018-12-05T02:08:58.000Z,101323
2018-12-05T02:09:58.000Z,101318
2018-12-05T02:11:58.000Z,101323
2018-12-05T02:13:28.000Z,101324
2018-12-05T02:14:58.000Z,101320
2018-12-05T02:16:58.000Z,101319
2018-12-05T02:17:58.000Z,101313
2018-12-05T02:19:58.000Z,101307
2018-12-05T02:20:59.000Z,101310
2018-12-05T02:21:59.000Z,101309
2018-12-05T02:23:43.000Z,101307
2018-12-05T02:24:59.000Z,101308
2018-12-05T02:26:59.000Z,101299
2018-12-05T02:28:58.000Z,101302
2018-12-05T02:30:59.000Z,101302
2018-12-05T02:32:59.000Z,101298
2018-12-05T02:34:58.000Z,101294
2018-12-05T02:35:59.000Z,101288
2018-12-05T02:37:59.000Z,101289
2018-12-05T02:39:59.000Z,101297
2018-12-05T02:41:59.000Z,101299
2018-12-05T02:43:59.000Z,101293
2018-12-05T02:45:59.000Z,101290
2018-12-05T02:46:59.000Z,101286
2018-12-05T02:48:58.000Z,101287
2018-12-05T02:50:59.000Z,101284
2018-12-05T02:52:43.000Z,101280
2018-12-05T02:53:59.000Z,101283
2018-12-05T02:54:59.000Z,101280
2018-12-05T02:55:59.000Z,101282
2018-12-05T02:57:43.000Z,101283
2018-12-05T02:58:59.000Z,101281
2018-12-05T03:00:59.000Z,101280
2018-12-05T03:01:59.000Z,101282
2018-12-05T03:03:59.000Z,101283
2018-12-05T03:05:59.000Z,101280
2018-12-05T03:06:59.000Z,101285
2018-12-05T03:08:59.000Z,101282
2018-12-05T03:09:59.000Z,101290
2018-12-05T03:11:59.000Z,101279
2018-12-05T03:13:59.000Z,101279
2018-12-05T03:14:59.000Z,101285
2018-12-05T03:16:59.000Z,101283
2018-12-05T03:18:59.000Z,101278
2018-12-05T03:19:59.000Z,101278
2018-12-05T03:21:58.000Z,101279
2018-12-05T03:23:58.000Z,101277
2018-12-05T03:25:58.000Z,101275
2018-12-05T03:26:58.000Z,101272
2018-12-05T03:28:58.000Z,101271
2018-12-05T03:30:58.000Z,101267
2018-12-05T03:32:58.000Z,101266
2018-12-05T03:34:42.000Z,101263
2018-12-05T03:35:42.000Z,101260
2018-12-05T03:36:58.000Z,101259
2018-12-05T03:38:58.000Z,101256
2018-12-05T03:39:58.000Z,101258
2018-12-05T03:41:58.000Z,101256
2018-12-05T03:43:42.000Z,101261
2018-12-05T03:44:58.000Z,101257
2018-12-05T03:45:58.000Z,101259
2018-12-05T03:47:58.000Z,101266
2018-12-05T03:49:58.000Z,101264
2018-12-05T03:51:58.000Z,101268
2018-12-05T03:53:42.000Z,101273
2018-12-05T03:54:42.000Z,101266
2018-12-05T03:55:58.000Z,101272
2018-12-05T03:57:58.000Z,101275
2018-12-05T03:59:58.000Z,101273
2018-12-05T04:01:58.000Z,101275
2018-12-05T04:02:58.000Z,101273
2018-12-05T04:04:58.000Z,101275
2018-12-05T04:06:58.000Z,101269
2018-12-05T04:08:58.000Z,101268
2018-12-05T04:10:58.000Z,101277
2018-12-05T04:11:58.000Z,101272
2018-12-05T04:12:58.000Z,101274
2018-12-05T04:14:58.000Z,101268
2018-12-05T04:16:58.000Z,101278
2018-12-05T04:17:58.000Z,101275
2018-12-05T04:19:58.000Z,101278
2018-12-05T04:21:58.000Z,101275
2018-12-05T04:23:58.000Z,101272
2018-12-05T04:24:58.000Z,101276
2018-12-05T04:26:58.000Z,101274
2018-12-05T04:28:43.000Z,101277
2018-12-05T04:30:58.000Z,101276
2018-12-05T04:31:58.000Z,101274
2018-12-05T04:33:58.000Z,101273
2018-12-05T04:35:58.000Z,101267
2018-12-05T04:37:58.000Z,101269
2018-12-05T04:39:58.000Z,101263
2018-12-05T04:41:58.000Z,101269
2018-12-05T04:43:43.000Z,101270
2018-12-05T04:44:58.000Z,101274
2018-12-05T04:46:58.000Z,101278
2018-12-05T04:48:58.000Z,101282
2018-12-05T04:49:58.000Z,101278
2018-12-05T04:51:43.000Z,101283
2018-12-05T04:52:58.000Z,101280
2018-12-05T04:54:43.000Z,101275
2018-12-05T04:55:58.000Z,101274
2018-12-05T04:57:58.000Z,101279
2018-12-05T04:59:58.000Z,101277
2018-12-05T05:01:58.000Z,101277
2018-12-05T05:03:58.000Z,101276
2018-12-05T05:04:58.000Z,101275
2018-12-05T05:05:58.000Z,101271
2018-12-05T05:07:58.000Z,101263
2018-12-05T05:09:58.000Z,101265
2018-12-05T05:10:58.000Z,101266
2018-12-05T05:12:58.000Z,101262
2018-12-05T05:14:43.000Z,101256
2018-12-05T05:15:58.000Z,101256
2018-12-05T05:17:58.000Z,101258
2018-12-05T05:19:58.000Z,101259
2018-12-05T05:21:58.000Z,101258
2018-12-05T05:22:58.000Z,101258
2018-12-05T05:24:58.000Z,101258
2018-12-05T05:25:58.000Z,101252
2018-12-05T05:26:58.000Z,101249
2018-12-05T05:28:43.000Z,101251
2018-12-05T05:29:58.000Z,101233
2018-12-05T05:31:43.000Z,101235
2018-12-05T05:32:58.000Z,101234
2018-12-05T05:34:58.000Z,101240
2018-12-05T05:36:28.000Z,101252
2018-12-05T05:37:58.000Z,101247
2018-12-05T05:38:58.000Z,101246
2018-12-05T05:40:58.000Z,101248
2018-12-05T05:41:58.000Z,101246
2018-12-05T05:43:58.000Z,101239
2018-12-05T05:45:58.000Z,101246
2018-12-05T05:47:58.000Z,101244
2018-12-05T05:49:58.000Z,101244
2018-12-05T05:50:58.000Z,101243
2018-12-05T05:52:58.000Z,101243
2018-12-05T05:54:58.000Z,101238
2018-12-05T05:55:58.000Z,101240
2018-12-05T05:57:43.000Z,101236
2018-12-05T05:58:58.000Z,101242
2018-12-05T06:00:58.000Z,101238
2018-12-05T06:01:58.000Z,101244
2018-12-05T06:03:58.000Z,101242
2018-12-05T06:05:43.000Z,101240
2018-12-05T06:06:58.000Z,101247
2018-12-05T06:08:58.000Z,101244
2018-12-05T06:10:58.000Z,101245
2018-12-05T06:11:58.000Z,101246
2018-12-05T06:12:58.000Z,101251
2018-12-05T06:14:58.000Z,101248
2018-12-05T06:16:58.000Z,101245
2018-12-05T06:18:28.000Z,101244
2018-12-05T06:19:58.000Z,101255
2018-12-05T06:21:58.000Z,101254
2018-12-05T06:23:58.000Z,101261
2018-12-05T06:24:58.000Z,101260
2018-12-05T06:26:58.000Z,101254
2018-12-05T06:27:58.000Z,101248
2018-12-05T06:29:58.000Z,101259
2018-12-05T06:31:58.000Z,101251
2018-12-05T06:33:58.000Z,101256
2018-12-05T06:35:58.000Z,101256
2018-12-05T06:36:58.000Z,101257
2018-12-05T06:38:58.000Z,101255
2018-12-05T06:40:43.000Z,101250
2018-12-05T06:42:58.000Z,101247
2018-12-05T06:43:58.000Z,101250
2018-12-05T06:45:58.000Z,101244
2018-12-05T06:47:58.000Z,101244
2018-12-05T06:48:58.000Z,101247
2018-12-05T06:50:58.000Z,101245
2018-12-05T06:52:58.000Z,101241
2018-12-05T06:53:58.000Z,101241
2018-12-05T06:55:58.000Z,101236
2018-12-05T06:57:58.000Z,101239
2018-12-05T06:59:58.000Z,101235
2018-12-05T07:00:58.000Z,101232
2018-12-05T07:02:58.000Z,101230
2018-12-05T07:04:43.000Z,101241
2018-12-05T07:05:43.000Z,101232
2018-12-05T07:06:58.000Z,101240
2018-12-05T07:08:43.000Z,101233
2018-12-05T07:09:58.000Z,101235
2018-12-05T07:11:58.000Z,101234
2018-12-05T07:12:58.000Z,101239
2018-12-05T07:14:58.000Z,101236
2018-12-05T07:16:58.000Z,101237
2018-12-05T07:18:58.000Z,101236
2018-12-05T07:20:58.000Z,101239
2018-12-05T07:21:58.000Z,101237
2018-12-05T07:22:58.000Z,101242
2018-12-05T07:24:58.000Z,101240
2018-12-05T07:26:58.000Z,101241
2018-12-05T07:28:58.000Z,101233
2018-12-05T07:29:58.000Z,101237
2018-12-05T07:31:58.000Z,101236
2018-12-05T07:33:58.000Z,101234
2018-12-05T07:34:58.000Z,101233
2018-12-05T07:36:43.000Z,101228
2018-12-05T07:38:58.000Z,101236
2018-12-05T07:40:58.000Z,101237
2018-12-05T07:41:58.000Z,101238
2018-12-05T07:42:58.000Z,101247
2018-12-05T07:44:43.000Z,101244
2018-12-05T07:45:58.000Z,101244
2018-12-05T07:47:58.000Z,101249
2018-12-05T07:48:58.000Z,101243
2018-12-05T07:50:58.000Z,101250
2018-12-05T07:52:58.000Z,101249
2018-12-05T07:54:43.000Z,101246
2018-12-05T07:55:58.000Z,101242
2018-12-05T07:57:58.000Z,101239
2018-12-05T07:59:58.000Z,101237
2018-12-05T08:00:58.000Z,101236
2018-12-05T08:01:58.000Z,101233
2018-12-05T08:03:58.000Z,101233
2018-12-05T08:05:58.000Z,101231
2018-12-05T08:07:58.000Z,101223
2018-12-05T08:09:43.000Z,101225
2018-12-05T08:10:58.000Z,101228
2018-12-05T08:12:58.000Z,101219
2018-12-05T08:14:58.000Z,101222
2018-12-05T08:15:58.000Z,101224
2018-12-05T08:17:58.000Z,101221
2018-12-05T08:18:58.000Z,101221
2018-12-05T08:20:58.000Z,101211
2018-12-05T08:22:43.000Z,101215
2018-12-05T08:23:58.000Z,101218
2018-12-05T08:25:58.000Z,101220
2018-12-05T08:26:58.000Z,101209
2018-12-05T08:28:58.000Z,101219
2018-12-05T08:30:43.000Z,101220
2018-12-05T08:31:58.000Z,101218
2018-12-05T08:33:58.000Z,101219
2018-12-05T08:34:58.000Z,101218
2018-12-05T08:35:58.000Z,101220
2018-12-05T08:37:58.000Z,101218
2018-12-05T08:39:58.000Z,101214
2018-12-05T08:41:58.000Z,101221
2018-12-05T08:43:43.000Z,101217
2018-12-05T08:45:58.000Z,101226
2018-12-05T08:46:58.000Z,101219
2018-12-05T08:48:43.000Z,101214
2018-12-05T08:49:58.000Z,101204
2018-12-05T08:51:58.000Z,101210
2018-12-05T08:53:58.000Z,101197
2018-12-05T08:55:58.000Z,101204
2018-12-05T08:57:43.000Z,101196
2018-12-05T08:58:58.000Z,101203
2018-12-05T09:00:58.000Z,101201
2018-12-05T09:02:58.000Z,101195
2018-12-05T09:03:58.000Z,101197
2018-12-05T09:04:58.000Z,101192
2018-12-05T09:06:58.000Z,101193
2018-12-05T09:08:58.000Z,101205
2018-12-05T09:09:58.000Z,101198
2018-12-05T09:11:58.000Z,101192
2018-12-05T09:12:58.000Z,101196
2018-12-05T09:14:43.000Z,101197
2018-12-05T09:15:58.000Z,101193
2018-12-05T09:16:58.000Z,101197
2018-12-05T09:17:58.000Z,101191
2018-12-05T09:19:58.000Z,101192
2018-12-05T09:21:58.000Z,101185
2018-12-05T09:22:58.000Z,101185
2018-12-05T09:24:58.000Z,101193
2018-12-05T09:26:58.000Z,101184
2018-12-05T09:28:58.000Z,101179
2018-12-05T09:30:43.000Z,101177
2018-12-05T09:31:58.000Z,101178
2018-12-05T09:32:58.000Z,101172
2018-12-05T09:33:58.000Z,101175
2018-12-05T09:35:58.000Z,101164
2018-12-05T09:37:58.000Z,101170
2018-12-05T09:38:58.000Z,101167
2018-12-05T09:40:58.000Z,101169
2018-12-05T09:42:58.000Z,101168
2018-12-05T09:44:58.000Z,101170
2018-12-05T09:45:58.000Z,101168
2018-12-05T09:47:58.000Z,101165
2018-12-05T09:48:58.000Z,101166
2018-12-05T09:50:58.000Z,101167
2018-12-05T09:52:58.000Z,101160
2018-12-05T09:54:58.000Z,101157
2018-12-05T09:55:58.000Z,101154
2018-12-05T09:57:43.000Z,101148
2018-12-05T09:58:58.000Z,101156
2018-12-05T10:00:58.000Z,101153
2018-12-05T10:01:58.000Z,101146
2018-12-05T10:03:58.000Z,101139
2018-12-05T10:05:58.000Z,101143
2018-12-05T10:07:58.000Z,101146
2018-12-05T10:09:58.000Z,101142
2018-12-05T10:11:58.000Z,101133
2018-12-05T10:13:58.000Z,101131
2018-12-05T10:14:58.000Z,101130
2018-12-05T10:16:58.000Z,101130
2018-12-05T10:18:58.000Z,101133
2018-12-05T10:20:58.000Z,101116
2018-12-05T10:22:58.000Z,101111
2018-12-05T10:23:58.000Z,101115
2018-12-05T10:25:58.000Z,101105
2018-12-05T10:26:58.000Z,101106
2018-12-05T10:28:58.000Z,101103
2018-12-05T10:30:58.000Z,101094
2018-12-05T10:32:43.000Z,101098
2018-12-05T10:33:58.000Z,101094
2018-12-05T10:35:58.000Z,101092
2018-12-05T10:36:58.000Z,101088
2018-12-05T10:37:58.000Z,101091
2018-12-05T10:39:58.000Z,101089
2018-12-05T10:40:58.000Z,101084
2018-12-05T10:42:58.000Z,101088
2018-12-05T10:43:58.000Z,101092
2018-12-05T10:44:58.000Z,101089
2018-12-05T10:46:58.000Z,101092
2018-12-05T10:48:58.000Z,101087
2018-12-05T10:50:43.000Z,101087
2018-12-05T10:51:58.000Z,101078
2018-12-05T10:53:58.000Z,101078
2018-12-05T10:55:43.000Z,101069
2018-12-05T10:56:43.000Z,101069
2018-12-05T10:58:58.000Z,101065
2018-12-05T10:59:58.000Z,101060
2018-12-05T11:01:58.000Z,101060
2018-12-05T11:03:43.000Z,101058
2018-12-05T11:04:58.000Z,101052
2018-12-05T11:06:43.000Z,101048
2018-12-05T11:07:58.000Z,101045
2018-12-05T11:09:58.000Z,101041
2018-12-05T11:10:58.000Z,101034
2018-12-05T11:12:58.000Z,101029
2018-12-05T11:13:58.000Z,101017
2018-12-05T11:15:58.000Z,101022
2018-12-05T11:17:58.000Z,101021
2018-12-05T11:19:58.000Z,101015
2018-12-05T11:21:43.000Z,101025
2018-12-05T11:23:58.000Z,101018
2018-12-05T11:25:58.000Z,101017
2018-12-05T11:26:58.000Z,101007
2018-12-05T11:28:58.000Z,101010
2018-12-05T11:30:43.000Z,101000
2018-12-05T11:31:58.000Z,100996
2018-12-05T11:32:58.000Z,100997
2018-12-05T11:34:43.000Z,100997
2018-12-05T11:35:58.000Z,100987
2018-12-05T11:37:58.000Z,100978
2018-12-05T11:39:58.000Z,100985
2018-12-05T11:41:43.000Z,100987
2018-12-05T11:43:58.000Z,100989
2018-12-05T11:45:58.000Z,100982
2018-12-05T11:47:58.000Z,100984
2018-12-05T11:48:58.000Z,100975
2018-12-05T11:50:58.000Z,100976
2018-12-05T11:51:58.000Z,100980
2018-12-05T11:53:58.000Z,100982
2018-12-05T11:55:58.000Z,100983
2018-12-05T11:56:58.000Z,100988
2018-12-05T11:58:58.000Z,100980
2018-12-05T12:00:58.000Z,100978
2018-12-05T12:02:58.000Z,100974
2018-12-05T12:04:58.000Z,100967
2018-12-05T12:05:58.000Z,100962
2018-12-05T12:07:58.000Z,100964
2018-12-05T12:09:27.000Z,100960
2018-12-05T12:10:58.000Z,100954
2018-12-05T12:12:58.000Z,100958
2018-12-05T12:13:58.000Z,100946
2018-12-05T12:15:58.000Z,100951
2018-12-05T12:16:58.000Z,100963
2018-12-05T12:18:58.000Z,100958
2018-12-05T12:19:58.000Z,100961
2018-12-05T12:21:58.000Z,100958
2018-12-05T12:23:58.000Z,100947
2018-12-05T12:25:43.000Z,100942
2018-12-05T12:27:58.000Z,100935
2018-12-05T12:28:58.000Z,100942
2018-12-05T12:30:58.000Z,100928
2018-12-05T12:32:43.000Z,100930
2018-12-05T12:33:58.000Z,100925
2018-12-05T12:35:58.000Z,100918
2018-12-05T12:37:58.000Z,100918
2018-12-05T12:38:58.000Z,100923
2018-12-05T12:40:43.000Z,100917
2018-12-05T12:41:58.000Z,100922
2018-12-05T12:43:58.000Z,100918
2018-12-05T12:44:58.000Z,100922
2018-12-05T12:46:58.000Z,100905
2018-12-05T12:47:58.000Z,100907
2018-12-05T12:49:58.000Z,100896
2018-12-05T12:51:58.000Z,100893
2018-12-05T12:53:58.000Z,100895
2018-12-05T12:55:43.000Z,100890
2018-12-05T12:56:58.000Z,100893
2018-12-05T12:58:58.000Z,100892
2018-12-05T13:00:58.000Z,100889
2018-12-05T13:02:43.000Z,100882
2018-12-05T13:03:58.000Z,100878
2018-12-05T13:04:58.000Z,100880
2018-12-05T13:05:58.000Z,100873
2018-12-05T13:07:28.000Z,100871
2018-12-05T13:08:58.000Z,100876
2018-12-05T13:09:58.000Z,100868
2018-12-05T13:11:58.000Z,100866
2018-12-05T13:13:58.000Z,100868
2018-12-05T13:15:58.000Z,100866
2018-12-05T13:17:58.000Z,100862
2018-12-05T13:18:58.000Z,100860
2018-12-05T13:20:58.000Z,100860
2018-12-05T13:22:58.000Z,100863
2018-12-05T13:23:58.000Z,100856
2018-12-05T13:25:58.000Z,100852
2018-12-05T13:27:58.000Z,100849
2018-12-05T13:29:58.000Z,100856
2018-12-05T13:30:58.000Z,100853
2018-12-05T13:32:43.000Z,100844
2018-12-05T13:33:58.000Z,100844
2018-12-05T13:34:58.000Z,100843
2018-12-05T13:35:58.000Z,100841
2018-12-05T13:37:43.000Z,100838
2018-12-05T13:38:58.000Z,100838
2018-12-05T13:40:58.000Z,100836
2018-12-05T13:42:58.000Z,100830
2018-12-05T13:44:58.000Z,100828
2018-12-05T13:46:28.000Z,100824
2018-12-05T13:47:58.000Z,100826
2018-12-05T13:48:58.000Z,100829
2018-12-05T13:49:58.000Z,100822
2018-12-05T13:51:58.000Z,100818
2018-12-05T13:53:58.000Z,100820
2018-12-05T13:55:58.000Z,100812
2018-12-05T13:57:58.000Z,100814
2018-12-05T13:58:58.000Z,100815
2018-12-05T14:00:59.000Z,100813
2018-12-05T14:02:59.000Z,100813
2018-12-05T14:04:43.000Z,100823
2018-12-05T14:05:59.000Z,100812
2018-12-05T14:06:59.000Z,100809
2018-12-05T14:08:59.000Z,100809
2018-12-05T14:10:58.000Z,100815
2018-12-05T14:12:59.000Z,100806
2018-12-05T14:13:59.000Z,100796
2018-12-05T14:15:59.000Z,100794
2018-12-05T14:16:59.000Z,100790
2018-12-05T14:18:59.000Z,100787
2018-12-05T14:19:59.000Z,100782
2018-12-05T14:21:59.000Z,100772
2018-12-05T14:23:59.000Z,100770
2018-12-05T14:25:59.000Z,100765
2018-12-05T14:27:44.000Z,100768
2018-12-05T14:28:59.000Z,100767
2018-12-05T14:29:59.000Z,100767
2018-12-05T14:31:59.000Z,100769
2018-12-05T14:33:59.000Z,100777
2018-12-05T14:35:59.000Z,100777
2018-12-05T14:37:59.000Z,100771
2018-12-05T14:39:59.000Z,100769
2018-12-05T14:41:43.000Z,100763
2018-12-05T14:42:59.000Z,100761
2018-12-05T14:44:59.000Z,100762
2018-12-05T14:46:59.000Z,100761
2018-12-05T14:47:59.000Z,100754
2018-12-05T14:49:59.000Z,100750
2018-12-05T14:51:59.000Z,100755
2018-12-05T14:52:59.000Z,100749
2018-12-05T14:54:59.000Z,100740
2018-12-05T14:56:59.000Z,100744
2018-12-05T14:58:58.000Z,100745
2018-12-05T14:59:59.000Z,100747
2018-12-05T15:01:59.000Z,100744
2018-12-05T15:03:58.000Z,100736
2018-12-05T15:05:58.000Z,100734
2018-12-05T15:07:58.000Z,100725
2018-12-05T15:08:58.000Z,100729
2018-12-05T15:10:43.000Z,100725
2018-12-05T15:11:58.000Z,100718
2018-12-05T15:13:58.000Z,100716
2018-12-05T15:14:58.000Z,100714
2018-12-05T15:15:58.000Z,100716
2018-12-05T15:17:43.000Z,100713
2018-12-05T15:18:58.000Z,100712
2018-12-05T15:19:58.000Z,100709
2018-12-05T15:21:58.000Z,100712
2018-12-05T15:22:59.000Z,100716
2018-12-05T15:24:44.000Z,100707
2018-12-05T15:26:58.000Z,100706
2018-12-05T15:28:58.000Z,100705
2018-12-05T15:29:58.000Z,100700
2018-12-05T15:30:58.000Z,100698
2018-12-05T15:32:43.000Z,100691
2018-12-05T15:33:58.000Z,100689
2018-12-05T15:34:58.000Z,100690
2018-12-05T15:36:58.000Z,100684
2018-12-05T15:38:58.000Z,100678
2018-12-05T15:40:43.000Z,100679
2018-12-05T15:41:44.000Z,100679
2018-12-05T15:42:58.000Z,100683
2018-12-05T15:44:43.000Z,100679
2018-12-05T15:45:58.000Z,100676
2018-12-05T15:46:58.000Z,100674
2018-12-05T15:48:43.000Z,100674
2018-12-05T15:49:58.000Z,100667
2018-12-05T15:51:58.000Z,100667
2018-12-05T15:53:43.000Z,100656
2018-12-05T15:54:58.000Z,100654
2018-12-05T15:55:58.000Z,100650
2018-12-05T15:57:58.000Z,100645
2018-12-05T15:59:58.000Z,100638
2018-12-05T16:00:59.000Z,100638
2018-12-05T16:02:58.000Z,100626
2018-12-05T16:03:58.000Z,100637
2018-12-05T16:05:58.000Z,100633
2018-12-05T16:06:58.000Z,100631
2018-12-05T16:08:28.000Z,100621
2018-12-05T16:09:58.000Z,100614
2018-12-05T16:10:58.000Z,100618
2018-12-05T16:12:58.000Z,100613
2018-12-05T16:13:58.000Z,100607
2018-12-05T16:15:43.000Z,100605
2018-12-05T16:16:58.000Z,100606
2018-12-05T16:18:43.000Z,100600
2018-12-05T16:19:58.000Z,100601
2018-12-05T16:20:58.000Z,100597
2018-12-05T16:22:58.000Z,100595
2018-12-05T16:24:58.000Z,100591
2018-12-05T16:25:58.000Z,100589
2018-12-05T16:27:58.000Z,100586
2018-12-05T16:29:58.000Z,100578
2018-12-05T16:31:58.000Z,100578
2018-12-05T16:33:43.000Z,100575
2018-12-05T16:34:58.000Z,100564
2018-12-05T16:35:58.000Z,100565
2018-12-05T16:37:58.000Z,100568
2018-12-05T16:39:58.000Z,100560
2018-12-05T16:41:58.000Z,100560
2018-12-05T16:42:58.000Z,100561
2018-12-05T16:44:58.000Z,100561
2018-12-05T16:45:58.000Z,100562
2018-12-05T16:47:58.000Z,100559
2018-12-05T16:49:58.000Z,100567
2018-12-05T16:50:58.000Z,100565
2018-12-05T16:52:58.000Z,100564
2018-12-05T16:53:58.000Z,100563
2018-12-05T16:55:58.000Z,100566
2018-12-05T16:57:28.000Z,100560
2018-12-05T16:58:58.000Z,100556
2018-12-05T16:59:58.000Z,100558
2018-12-05T17:00:58.000Z,100562
2018-12-05T17:02:43.000Z,100555
2018-12-05T17:03:58.000Z,100560
2018-12-05T17:05:58.000Z,100553
2018-12-05T17:07:43.000Z,100539
2018-12-05T17:08:43.000Z,100544
2018-12-05T17:10:58.000Z,100538
2018-12-05T17:12:58.000Z,100541
2018-12-05T17:13:58.000Z,100534
2018-12-05T17:14:58.000Z,100534
2018-12-05T17:16:58.000Z,100535
2018-12-05T17:18:58.000Z,100530
2018-12-05T17:20:58.000Z,100529
2018-12-05T17:21:58.000Z,100537
2018-12-05T17:23:43.000Z,100519
2018-12-05T17:24:58.000Z,100524
2018-12-05T17:25:58.000Z,100517
2018-12-05T17:27:58.000Z,100514
2018-12-05T17:28:58.000Z,100515
2018-12-05T17:30:58.000Z,100513
2018-12-05T17:31:58.000Z,100507
2018-12-05T17:32:58.000Z,100505
2018-12-05T17:34:58.000Z,100506
2018-12-05T17:36:58.000Z,100500
2018-12-05T17:38:43.000Z,100497
2018-12-05T17:39:58.000Z,100494
2018-12-05T17:40:58.000Z,100500
2018-12-05T17:42:58.000Z,100503
2018-12-05T17:44:43.000Z,100497
2018-12-05T17:45:58.000Z,100501
2018-12-05T17:46:58.000Z,100501
2018-12-05T17:47:58.000Z,100504
2018-12-05T17:49:58.000Z,100499
2018-12-05T17:51:58.000Z,100507
2018-12-05T17:53:58.000Z,100504
2018-12-05T17:55:58.000Z,100497
2018-12-05T17:57:43.000Z,100497
2018-12-05T17:58:58.000Z,100497
2018-12-05T18:00:58.000Z,100496
2018-12-05T18:02:58.000Z,100495
2018-12-05T18:04:58.000Z,100492
2018-12-05T18:06:58.000Z,100493
2018-12-05T18:08:58.000Z,100484
2018-12-05T18:10:58.000Z,100483
2018-12-05T18:11:58.000Z,100479
2018-12-05T18:13:43.000Z,100478
2018-12-05T18:14:59.000Z,100478
2018-12-05T18:16:59.000Z,100471
2018-12-05T18:18:59.000Z,100467
2018-12-05T18:20:43.000Z,100455
2018-12-05T18:21:59.000Z,100459
2018-12-05T18:23:59.000Z,100444
2018-12-05T18:25:59.000Z,100438
2018-12-05T18:27:59.000Z,100435
2018-12-05T18:29:59.000Z,100429
2018-12-05T18:30:59.000Z,100424
2018-12-05T18:32:59.000Z,100419
2018-12-05T18:34:59.000Z,100414
2018-12-05T18:35:59.000Z,100406
2018-12-05T18:37:43.000Z,100408
2018-12-05T18:38:59.000Z,100405
2018-12-05T18:40:59.000Z,100403
2018-12-05T18:42:59.000Z,100401
2018-12-05T18:44:59.000Z,100400
2018-12-05T18:46:59.000Z,100397
2018-12-05T18:48:59.000Z,100396
2018-12-05T18:50:43.000Z,100395
2018-12-05T18:51:59.000Z,100392
2018-12-05T18:53:59.000Z,100395
2018-12-05T18:55:59.000Z,100398
2018-12-05T18:57:59.000Z,100395
2018-12-05T18:59:59.000Z,100390
2018-12-05T19:01:59.000Z,100382
2018-12-05T19:02:59.000Z,100376
2018-12-05T19:03:59.000Z,100379
2018-12-05T19:05:59.000Z,100375
2018-12-05T19:07:59.000Z,100375
2018-12-05T19:09:43.000Z,100377
2018-12-05T19:10:59.000Z,100374
2018-12-05T19:12:43.000Z,100373
2018-12-05T19:13:59.000Z,100375
2018-12-05T19:15:59.000Z,100367
2018-12-05T19:17:59.000Z,100366
2018-12-05T19:19:58.000Z,100366
2018-12-05T19:21:58.000Z,100362
2018-12-05T19:23:58.000Z,100355
2018-12-05T19:24:58.000Z,100352
2018-12-05T19:26:58.000Z,100358
2018-12-05T19:27:58.000Z,100361
2018-12-05T19:29:43.000Z,100353
2018-12-05T19:30:58.000Z,100360
2018-12-05T19:31:58.000Z,100358
2018-12-05T19:33:58.000Z,100357
2018-12-05T19:35:58.000Z,100355
2018-12-05T19:37:58.000Z,100343
2018-12-05T19:39:58.000Z,100343
2018-12-05T19:40:58.000Z,100339
2018-12-05T19:42:28.000Z,100338
2018-12-05T19:43:58.000Z,100337
2018-12-05T19:44:58.000Z,100339
2018-12-05T19:45:58.000Z,100336
2018-12-05T19:47:43.000Z,100333
2018-12-05T19:48:58.000Z,100325
2018-12-05T19:49:58.000Z,100324
2018-12-05T19:51:58.000Z,100321
2018-12-05T19:53:58.000Z,100317
2018-12-05T19:55:58.000Z,100318
2018-12-05T19:56:58.000Z,100315
2018-12-05T19:58:58.000Z,100313
2018-12-05T20:00:58.000Z,100302
2018-12-05T20:01:58.000Z,100296
2018-12-05T20:03:58.000Z,100293
2018-12-05T20:05:58.000Z,100300
2018-12-05T20:07:43.000Z,100302
2018-12-05T20:08:58.000Z,100295
2018-12-05T20:10:58.000Z,100291
2018-12-05T20:11:58.000Z,100294
2018-12-05T20:13:58.000Z,100283
2018-12-05T20:14:58.000Z,100276
2018-12-05T20:16:58.000Z,100282